sensor_id;sensor_type;location;lat;lon;timestamp;P1;durP1;ratioP1;P2;durP2;ratioP2
71513;SDS011;59335;46.652;21.272;2023-08-20T00:00:53;7.90;;;6.50;;
71513;SDS011;59335;46.652;21.272;2023-08-20T00:03:56;8.32;;;6.35;;
71513;SDS011;59335;46.652;21.272;2023-08-20T00:06:59;7.90;;;6.47;;
71513;SDS011;59335;46.652;21.272;2023-08-20T00:10:02;7.95;;;6.63;;
71513;SDS011;59335;46.652;21.272;2023-08-20T00:13:06;9.20;;;7.10;;
71513;SDS011;59335;46.652;21.272;2023-08-20T00:16:09;8.48;;;6.53;;
71513;SDS011;59335;46.652;21.272;2023-08-20T00:19:12;8.60;;;6.72;;
71513;SDS011;59335;46.652;21.272;2023-08-20T00:22:15;8.20;;;6.50;;
71513;SDS011;59335;46.652;21.272;2023-08-20T00:25:19;7.82;;;6.38;;
71513;SDS011;59335;46.652;21.272;2023-08-20T00:28:21;8.65;;;6.78;;
71513;SDS011;59335;46.652;21.272;2023-08-20T00:31:24;7.55;;;6.28;;
71513;SDS011;59335;46.652;21.272;2023-08-20T00:34:27;8.18;;;6.80;;
71513;SDS011;59335;46.652;21.272;2023-08-20T00:37:30;8.33;;;6.50;;
71513;SDS011;59335;46.652;21.272;2023-08-20T00:40:34;9.27;;;6.82;;
71513;SDS011;59335;46.652;21.272;2023-08-20T00:43:36;8.60;;;6.75;;
71513;SDS011;59335;46.652;21.272;2023-08-20T00:46:40;8.23;;;6.65;;
71513;SDS011;59335;46.652;21.272;2023-08-20T00:49:43;8.05;;;6.10;;
71513;SDS011;59335;46.652;21.272;2023-08-20T00:52:46;8.90;;;6.53;;
71513;SDS011;59335;46.652;21.272;2023-08-20T00:55:49;8.40;;;7.35;;
71513;SDS011;59335;46.652;21.272;2023-08-20T00:58:52;8.00;;;6.55;;
71513;SDS011;59335;46.652;21.272;2023-08-20T01:01:56;8.10;;;6.55;;
71513;SDS011;59335;46.652;21.272;2023-08-20T01:04:59;8.35;;;6.85;;
71513;SDS011;59335;46.652;21.272;2023-08-20T01:08:19;7.90;;;6.30;;
71513;SDS011;59335;46.652;21.272;2023-08-20T01:11:29;7.68;;;6.70;;
71513;SDS011;59335;46.652;21.272;2023-08-20T01:14:36;8.55;;;7.05;;
71513;SDS011;59335;46.652;21.272;2023-08-20T01:17:38;8.90;;;6.90;;
71513;SDS011;59335;46.652;21.272;2023-08-20T01:20:45;8.48;;;6.75;;
71513;SDS011;59335;46.652;21.272;2023-08-20T01:27:49;8.40;;;6.47;;
71513;SDS011;59335;46.652;21.272;2023-08-20T01:30:38;8.93;;;6.90;;
71513;SDS011;59335;46.652;21.272;2023-08-20T01:33:41;8.30;;;6.97;;
71513;SDS011;59335;46.652;21.272;2023-08-20T01:36:44;8.50;;;7.03;;
71513;SDS011;59335;46.652;21.272;2023-08-20T01:39:46;9.07;;;6.83;;
71513;SDS011;59335;46.652;21.272;2023-08-20T01:42:50;8.68;;;6.80;;
71513;SDS011;59335;46.652;21.272;2023-08-20T01:45:52;8.32;;;7.10;;
71513;SDS011;59335;46.652;21.272;2023-08-20T01:48:55;8.52;;;6.70;;
71513;SDS011;59335;46.652;21.272;2023-08-20T01:51:58;7.80;;;6.47;;
71513;SDS011;59335;46.652;21.272;2023-08-20T01:55:00;8.53;;;6.50;;
71513;SDS011;59335;46.652;21.272;2023-08-20T01:58:03;9.15;;;6.80;;
71513;SDS011;59335;46.652;21.272;2023-08-20T02:01:07;8.20;;;7.25;;
71513;SDS011;59335;46.652;21.272;2023-08-20T02:04:10;9.25;;;6.63;;
71513;SDS011;59335;46.652;21.272;2023-08-20T02:07:12;7.65;;;6.70;;
71513;SDS011;59335;46.652;21.272;2023-08-20T02:10:15;8.33;;;6.67;;
71513;SDS011;59335;46.652;21.272;2023-08-20T02:13:17;8.77;;;7.40;;
71513;SDS011;59335;46.652;21.272;2023-08-20T02:16:20;8.30;;;7.05;;
71513;SDS011;59335;46.652;21.272;2023-08-20T02:19:23;9.18;;;6.82;;
71513;SDS011;59335;46.652;21.272;2023-08-20T02:22:26;7.63;;;6.53;;
71513;SDS011;59335;46.652;21.272;2023-08-20T02:25:31;8.23;;;6.70;;
71513;SDS011;59335;46.652;21.272;2023-08-20T02:28:34;7.70;;;6.78;;
71513;SDS011;59335;46.652;21.272;2023-08-20T02:31:37;9.13;;;7.10;;
71513;SDS011;59335;46.652;21.272;2023-08-20T02:34:40;9.63;;;6.63;;
71513;SDS011;59335;46.652;21.272;2023-08-20T02:37:42;8.82;;;7.43;;
71513;SDS011;59335;46.652;21.272;2023-08-20T02:40:46;8.17;;;6.90;;
71513;SDS011;59335;46.652;21.272;2023-08-20T02:43:49;8.05;;;6.63;;
71513;SDS011;59335;46.652;21.272;2023-08-20T02:46:52;8.45;;;6.78;;
71513;SDS011;59335;46.652;21.272;2023-08-20T02:49:54;8.50;;;7.18;;
71513;SDS011;59335;46.652;21.272;2023-08-20T02:52:57;8.25;;;6.95;;
71513;SDS011;59335;46.652;21.272;2023-08-20T02:55:59;7.77;;;6.40;;
71513;SDS011;59335;46.652;21.272;2023-08-20T02:59:02;8.57;;;7.13;;
71513;SDS011;59335;46.652;21.272;2023-08-20T03:02:05;8.15;;;6.97;;
71513;SDS011;59335;46.652;21.272;2023-08-20T03:05:08;7.65;;;6.47;;
71513;SDS011;59335;46.652;21.272;2023-08-20T03:08:11;8.73;;;7.10;;
71513;SDS011;59335;46.652;21.272;2023-08-20T03:11:14;9.17;;;7.30;;
71513;SDS011;59335;46.652;21.272;2023-08-20T03:14:17;8.02;;;6.95;;
71513;SDS011;59335;46.652;21.272;2023-08-20T03:17:19;8.52;;;7.28;;
71513;SDS011;59335;46.652;21.272;2023-08-20T03:20:22;8.77;;;6.90;;
71513;SDS011;59335;46.652;21.272;2023-08-20T03:23:25;8.73;;;7.10;;
71513;SDS011;59335;46.652;21.272;2023-08-20T03:26:27;7.90;;;6.53;;
71513;SDS011;59335;46.652;21.272;2023-08-20T03:29:30;8.18;;;7.25;;
71513;SDS011;59335;46.652;21.272;2023-08-20T03:32:32;8.52;;;7.05;;
71513;SDS011;59335;46.652;21.272;2023-08-20T03:35:35;8.65;;;6.50;;
71513;SDS011;59335;46.652;21.272;2023-08-20T03:38:38;8.68;;;7.35;;
71513;SDS011;59335;46.652;21.272;2023-08-20T03:41:41;9.60;;;7.10;;
71513;SDS011;59335;46.652;21.272;2023-08-20T03:44:43;8.80;;;6.72;;
71513;SDS011;59335;46.652;21.272;2023-08-20T03:47:46;9.40;;;7.00;;
71513;SDS011;59335;46.652;21.272;2023-08-20T03:50:51;9.85;;;6.72;;
71513;SDS011;59335;46.652;21.272;2023-08-20T03:53:54;8.40;;;7.05;;
71513;SDS011;59335;46.652;21.272;2023-08-20T03:56:57;8.20;;;6.90;;
71513;SDS011;59335;46.652;21.272;2023-08-20T03:59:59;9.63;;;6.80;;
71513;SDS011;59335;46.652;21.272;2023-08-20T04:03:02;8.82;;;7.18;;
71513;SDS011;59335;46.652;21.272;2023-08-20T04:06:05;7.88;;;6.68;;
71513;SDS011;59335;46.652;21.272;2023-08-20T04:09:09;9.23;;;7.35;;
71513;SDS011;59335;46.652;21.272;2023-08-20T04:12:11;8.80;;;6.90;;
71513;SDS011;59335;46.652;21.272;2023-08-20T04:15:14;8.05;;;6.78;;
71513;SDS011;59335;46.652;21.272;2023-08-20T04:18:17;10.02;;;7.88;;
71513;SDS011;59335;46.652;21.272;2023-08-20T04:21:20;8.63;;;7.57;;
71513;SDS011;59335;46.652;21.272;2023-08-20T04:24:24;8.63;;;7.72;;
71513;SDS011;59335;46.652;21.272;2023-08-20T04:27:26;8.97;;;7.23;;
71513;SDS011;59335;46.652;21.272;2023-08-20T04:30:29;9.07;;;7.45;;
71513;SDS011;59335;46.652;21.272;2023-08-20T04:33:33;8.73;;;7.35;;
71513;SDS011;59335;46.652;21.272;2023-08-20T04:36:35;8.73;;;7.10;;
71513;SDS011;59335;46.652;21.272;2023-08-20T04:39:38;8.85;;;7.68;;
71513;SDS011;59335;46.652;21.272;2023-08-20T04:42:41;8.67;;;7.10;;
71513;SDS011;59335;46.652;21.272;2023-08-20T04:45:44;9.20;;;8.13;;
71513;SDS011;59335;46.652;21.272;2023-08-20T04:48:47;8.75;;;7.30;;
71513;SDS011;59335;46.652;21.272;2023-08-20T04:51:49;8.73;;;7.63;;
71513;SDS011;59335;46.652;21.272;2023-08-20T04:54:52;9.27;;;8.27;;
71513;SDS011;59335;46.652;21.272;2023-08-20T04:57:56;9.05;;;7.40;;
71513;SDS011;59335;46.652;21.272;2023-08-20T05:00:59;8.73;;;7.45;;
71513;SDS011;59335;46.652;21.272;2023-08-20T05:04:03;8.52;;;7.57;;
71513;SDS011;59335;46.652;21.272;2023-08-20T05:07:06;8.45;;;7.40;;
71513;SDS011;59335;46.652;21.272;2023-08-20T05:10:08;8.87;;;6.87;;
71513;SDS011;59335;46.652;21.272;2023-08-20T05:13:11;9.07;;;7.60;;
71513;SDS011;59335;46.652;21.272;2023-08-20T05:16:14;9.18;;;7.43;;
71513;SDS011;59335;46.652;21.272;2023-08-20T05:19:17;8.68;;;7.72;;
71513;SDS011;59335;46.652;21.272;2023-08-20T05:22:20;8.55;;;7.63;;
71513;SDS011;59335;46.652;21.272;2023-08-20T05:25:22;9.17;;;8.13;;
71513;SDS011;59335;46.652;21.272;2023-08-20T05:28:26;8.98;;;7.47;;
71513;SDS011;59335;46.652;21.272;2023-08-20T05:31:29;10.43;;;8.35;;
71513;SDS011;59335;46.652;21.272;2023-08-20T05:34:31;9.60;;;8.50;;
71513;SDS011;59335;46.652;21.272;2023-08-20T05:37:34;9.70;;;7.70;;
71513;SDS011;59335;46.652;21.272;2023-08-20T05:40:37;9.70;;;7.43;;
71513;SDS011;59335;46.652;21.272;2023-08-20T05:43:40;9.35;;;7.75;;
71513;SDS011;59335;46.652;21.272;2023-08-20T05:46:43;9.82;;;7.97;;
71513;SDS011;59335;46.652;21.272;2023-08-20T05:49:46;9.55;;;7.97;;
71513;SDS011;59335;46.652;21.272;2023-08-20T05:52:49;9.25;;;7.05;;
71513;SDS011;59335;46.652;21.272;2023-08-20T05:55:52;8.93;;;7.53;;
71513;SDS011;59335;46.652;21.272;2023-08-20T05:58:55;9.23;;;7.32;;
71513;SDS011;59335;46.652;21.272;2023-08-20T06:02:00;9.60;;;7.72;;
71513;SDS011;59335;46.652;21.272;2023-08-20T06:05:04;9.40;;;7.97;;
71513;SDS011;59335;46.652;21.272;2023-08-20T06:08:07;8.52;;;7.35;;
71513;SDS011;59335;46.652;21.272;2023-08-20T06:11:09;8.47;;;7.53;;
71513;SDS011;59335;46.652;21.272;2023-08-20T06:14:12;8.90;;;7.50;;
71513;SDS011;59335;46.652;21.272;2023-08-20T06:17:14;9.10;;;7.60;;
71513;SDS011;59335;46.652;21.272;2023-08-20T06:20:17;8.80;;;7.38;;
71513;SDS011;59335;46.652;21.272;2023-08-20T06:23:21;8.52;;;7.10;;
71513;SDS011;59335;46.652;21.272;2023-08-20T06:26:43;8.50;;;7.40;;
71513;SDS011;59335;46.652;21.272;2023-08-20T06:29:47;8.32;;;7.20;;
71513;SDS011;59335;46.652;21.272;2023-08-20T06:32:49;8.75;;;7.38;;
71513;SDS011;59335;46.652;21.272;2023-08-20T06:35:52;8.95;;;7.43;;
71513;SDS011;59335;46.652;21.272;2023-08-20T06:38:54;9.57;;;7.40;;
71513;SDS011;59335;46.652;21.272;2023-08-20T06:41:57;9.10;;;7.83;;
71513;SDS011;59335;46.652;21.272;2023-08-20T06:45:00;9.40;;;7.55;;
71513;SDS011;59335;46.652;21.272;2023-08-20T06:48:02;8.98;;;7.35;;
71513;SDS011;59335;46.652;21.272;2023-08-20T06:51:12;9.43;;;7.28;;
71513;SDS011;59335;46.652;21.272;2023-08-20T06:54:15;9.20;;;7.60;;
71513;SDS011;59335;46.652;21.272;2023-08-20T06:57:18;9.53;;;8.13;;
71513;SDS011;59335;46.652;21.272;2023-08-20T07:00:21;9.23;;;8.23;;
71513;SDS011;59335;46.652;21.272;2023-08-20T07:03:24;9.55;;;7.75;;
71513;SDS011;59335;46.652;21.272;2023-08-20T07:06:26;9.15;;;7.68;;
71513;SDS011;59335;46.652;21.272;2023-08-20T07:09:29;9.15;;;8.13;;
71513;SDS011;59335;46.652;21.272;2023-08-20T07:12:32;8.57;;;7.33;;
71513;SDS011;59335;46.652;21.272;2023-08-20T07:15:35;10.05;;;8.02;;
71513;SDS011;59335;46.652;21.272;2023-08-20T07:18:37;9.25;;;7.75;;
71513;SDS011;59335;46.652;21.272;2023-08-20T07:21:40;8.88;;;7.97;;
71513;SDS011;59335;46.652;21.272;2023-08-20T07:24:43;9.02;;;8.00;;
71513;SDS011;59335;46.652;21.272;2023-08-20T07:27:45;9.60;;;7.63;;
71513;SDS011;59335;46.652;21.272;2023-08-20T07:30:48;9.80;;;8.32;;
71513;SDS011;59335;46.652;21.272;2023-08-20T07:33:53;9.40;;;8.40;;
71513;SDS011;59335;46.652;21.272;2023-08-20T07:36:57;9.63;;;7.88;;
71513;SDS011;59335;46.652;21.272;2023-08-20T07:40:00;8.90;;;7.40;;
71513;SDS011;59335;46.652;21.272;2023-08-20T07:43:03;8.43;;;7.50;;
71513;SDS011;59335;46.652;21.272;2023-08-20T07:46:06;9.45;;;8.45;;
71513;SDS011;59335;46.652;21.272;2023-08-20T07:49:10;10.25;;;8.50;;
71513;SDS011;59335;46.652;21.272;2023-08-20T07:52:12;9.10;;;8.13;;
71513;SDS011;59335;46.652;21.272;2023-08-20T07:55:15;9.27;;;8.00;;
71513;SDS011;59335;46.652;21.272;2023-08-20T07:58:18;10.37;;;8.37;;
71513;SDS011;59335;46.652;21.272;2023-08-20T08:01:20;9.70;;;8.20;;
71513;SDS011;59335;46.652;21.272;2023-08-20T08:04:24;9.02;;;7.50;;
71513;SDS011;59335;46.652;21.272;2023-08-20T08:07:27;9.00;;;8.10;;
71513;SDS011;59335;46.652;21.272;2023-08-20T08:10:30;9.35;;;7.72;;
71513;SDS011;59335;46.652;21.272;2023-08-20T08:13:33;9.10;;;7.80;;
71513;SDS011;59335;46.652;21.272;2023-08-20T08:16:35;9.63;;;8.60;;
71513;SDS011;59335;46.652;21.272;2023-08-20T08:19:38;8.65;;;7.40;;
71513;SDS011;59335;46.652;21.272;2023-08-20T08:22:40;10.13;;;7.68;;
71513;SDS011;59335;46.652;21.272;2023-08-20T08:25:44;9.43;;;8.43;;
71513;SDS011;59335;46.652;21.272;2023-08-20T08:28:47;9.87;;;7.77;;
71513;SDS011;59335;46.652;21.272;2023-08-20T08:31:49;9.77;;;8.32;;
71513;SDS011;59335;46.652;21.272;2023-08-20T08:34:52;9.43;;;8.25;;
71513;SDS011;59335;46.652;21.272;2023-08-20T08:37:55;9.60;;;8.15;;
71513;SDS011;59335;46.652;21.272;2023-08-20T08:40:57;9.05;;;7.70;;
71513;SDS011;59335;46.652;21.272;2023-08-20T08:44:01;9.30;;;7.80;;
71513;SDS011;59335;46.652;21.272;2023-08-20T08:47:05;10.80;;;7.75;;
71513;SDS011;59335;46.652;21.272;2023-08-20T08:50:07;9.85;;;7.72;;
71513;SDS011;59335;46.652;21.272;2023-08-20T08:53:11;9.63;;;7.97;;
71513;SDS011;59335;46.652;21.272;2023-08-20T08:56:15;8.80;;;7.50;;
71513;SDS011;59335;46.652;21.272;2023-08-20T08:59:19;8.90;;;7.40;;
71513;SDS011;59335;46.652;21.272;2023-08-20T09:02:22;8.82;;;7.72;;
71513;SDS011;59335;46.652;21.272;2023-08-20T09:05:25;8.52;;;7.63;;
71513;SDS011;59335;46.652;21.272;2023-08-20T09:08:29;9.02;;;7.93;;
71513;SDS011;59335;46.652;21.272;2023-08-20T09:11:35;8.82;;;7.93;;
71513;SDS011;59335;46.652;21.272;2023-08-20T09:14:38;8.93;;;8.03;;
71513;SDS011;59335;46.652;21.272;2023-08-20T09:17:43;9.00;;;8.10;;
71513;SDS011;59335;46.652;21.272;2023-08-20T09:20:47;8.75;;;7.85;;
71513;SDS011;59335;46.652;21.272;2023-08-20T09:23:51;9.82;;;7.88;;
71513;SDS011;59335;46.652;21.272;2023-08-20T09:26:57;10.20;;;8.30;;
71513;SDS011;59335;46.652;21.272;2023-08-20T09:30:02;9.77;;;8.17;;
71513;SDS011;59335;46.652;21.272;2023-08-20T09:33:11;9.40;;;7.88;;
71513;SDS011;59335;46.652;21.272;2023-08-20T09:36:16;9.00;;;7.57;;
71513;SDS011;59335;46.652;21.272;2023-08-20T09:39:20;9.90;;;7.85;;
71513;SDS011;59335;46.652;21.272;2023-08-20T09:42:22;8.77;;;7.78;;
71513;SDS011;59335;46.652;21.272;2023-08-20T09:45:28;9.17;;;7.83;;
71513;SDS011;59335;46.652;21.272;2023-08-20T09:48:34;8.95;;;8.05;;
71513;SDS011;59335;46.652;21.272;2023-08-20T09:51:40;8.73;;;7.60;;
71513;SDS011;59335;46.652;21.272;2023-08-20T09:57:56;9.73;;;7.88;;
71513;SDS011;59335;46.652;21.272;2023-08-20T10:00:58;10.17;;;8.67;;
71513;SDS011;59335;46.652;21.272;2023-08-20T10:04:02;9.70;;;8.05;;
71513;SDS011;59335;46.652;21.272;2023-08-20T10:07:05;9.00;;;8.10;;
71513;SDS011;59335;46.652;21.272;2023-08-20T10:10:08;9.20;;;7.95;;
71513;SDS011;59335;46.652;21.272;2023-08-20T10:13:16;9.02;;;7.47;;
71513;SDS011;59335;46.652;21.272;2023-08-20T10:16:20;9.83;;;7.67;;
71513;SDS011;59335;46.652;21.272;2023-08-20T10:19:24;8.50;;;7.47;;
71513;SDS011;59335;46.652;21.272;2023-08-20T10:22:36;9.38;;;7.70;;
71513;SDS011;59335;46.652;21.272;2023-08-20T10:25:40;9.07;;;8.00;;
71513;SDS011;59335;46.652;21.272;2023-08-20T10:28:44;9.23;;;7.68;;
71513;SDS011;59335;46.652;21.272;2023-08-20T10:31:47;9.20;;;7.97;;
71513;SDS011;59335;46.652;21.272;2023-08-20T10:34:50;8.60;;;7.32;;
71513;SDS011;59335;46.652;21.272;2023-08-20T10:38:01;9.85;;;7.80;;
71513;SDS011;59335;46.652;21.272;2023-08-20T10:41:13;8.75;;;7.45;;
71513;SDS011;59335;46.652;21.272;2023-08-20T10:44:19;9.13;;;7.75;;
71513;SDS011;59335;46.652;21.272;2023-08-20T10:50:44;9.07;;;8.02;;
71513;SDS011;59335;46.652;21.272;2023-08-20T10:57:02;8.77;;;7.60;;
71513;SDS011;59335;46.652;21.272;2023-08-20T11:00:07;9.18;;;7.60;;
71513;SDS011;59335;46.652;21.272;2023-08-20T11:03:13;9.30;;;7.60;;
71513;SDS011;59335;46.652;21.272;2023-08-20T11:06:17;8.75;;;7.25;;
71513;SDS011;59335;46.652;21.272;2023-08-20T11:09:23;8.65;;;7.20;;
71513;SDS011;59335;46.652;21.272;2023-08-20T11:12:28;8.60;;;7.18;;
71513;SDS011;59335;46.652;21.272;2023-08-20T11:15:31;8.40;;;7.28;;
71513;SDS011;59335;46.652;21.272;2023-08-20T11:18:36;9.10;;;7.83;;
71513;SDS011;59335;46.652;21.272;2023-08-20T11:21:40;9.48;;;8.00;;
71513;SDS011;59335;46.652;21.272;2023-08-20T11:24:44;9.05;;;7.72;;
71513;SDS011;59335;46.652;21.272;2023-08-20T11:27:47;8.40;;;7.30;;
71513;SDS011;59335;46.652;21.272;2023-08-20T11:30:50;8.40;;;7.50;;
71513;SDS011;59335;46.652;21.272;2023-08-20T11:33:52;8.83;;;7.20;;
71513;SDS011;59335;46.652;21.272;2023-08-20T11:36:55;9.60;;;7.88;;
71513;SDS011;59335;46.652;21.272;2023-08-20T11:39:58;8.45;;;7.30;;
71513;SDS011;59335;46.652;21.272;2023-08-20T11:43:01;8.77;;;7.40;;
71513;SDS011;59335;46.652;21.272;2023-08-20T11:46:04;8.32;;;7.43;;
71513;SDS011;59335;46.652;21.272;2023-08-20T11:49:08;8.60;;;7.53;;
71513;SDS011;59335;46.652;21.272;2023-08-20T11:52:12;8.57;;;7.60;;
71513;SDS011;59335;46.652;21.272;2023-08-20T11:55:21;8.40;;;7.32;;
71513;SDS011;59335;46.652;21.272;2023-08-20T11:58:28;9.07;;;7.45;;
71513;SDS011;59335;46.652;21.272;2023-08-20T12:01:31;8.90;;;7.70;;
71513;SDS011;59335;46.652;21.272;2023-08-20T12:04:34;8.87;;;7.33;;
71513;SDS011;59335;46.652;21.272;2023-08-20T12:07:37;9.07;;;7.75;;
71513;SDS011;59335;46.652;21.272;2023-08-20T12:10:41;8.57;;;7.22;;
71513;SDS011;59335;46.652;21.272;2023-08-20T12:13:47;9.40;;;7.72;;
71513;SDS011;59335;46.652;21.272;2023-08-20T12:16:50;9.10;;;7.88;;
71513;SDS011;59335;46.652;21.272;2023-08-20T12:19:55;9.70;;;7.80;;
71513;SDS011;59335;46.652;21.272;2023-08-20T12:22:59;9.07;;;8.07;;
71513;SDS011;59335;46.652;21.272;2023-08-20T12:26:04;8.98;;;7.57;;
71513;SDS011;59335;46.652;21.272;2023-08-20T12:29:06;8.80;;;7.32;;
71513;SDS011;59335;46.652;21.272;2023-08-20T12:32:10;8.93;;;7.45;;
71513;SDS011;59335;46.652;21.272;2023-08-20T12:35:12;9.40;;;7.70;;
71513;SDS011;59335;46.652;21.272;2023-08-20T12:38:15;8.98;;;7.68;;
71513;SDS011;59335;46.652;21.272;2023-08-20T12:41:18;8.75;;;7.18;;
71513;SDS011;59335;46.652;21.272;2023-08-20T12:44:22;13.05;;;7.78;;
71513;SDS011;59335;46.652;21.272;2023-08-20T12:47:24;9.27;;;7.65;;
71513;SDS011;59335;46.652;21.272;2023-08-20T12:50:27;8.40;;;7.50;;
71513;SDS011;59335;46.652;21.272;2023-08-20T12:53:30;9.63;;;7.90;;
71513;SDS011;59335;46.652;21.272;2023-08-20T12:56:33;8.80;;;7.30;;
71513;SDS011;59335;46.652;21.272;2023-08-20T12:59:35;9.00;;;7.43;;
71513;SDS011;59335;46.652;21.272;2023-08-20T13:02:38;9.07;;;7.50;;
71513;SDS011;59335;46.652;21.272;2023-08-20T13:05:42;8.80;;;7.87;;
71513;SDS011;59335;46.652;21.272;2023-08-20T13:08:45;8.30;;;7.20;;
71513;SDS011;59335;46.652;21.272;2023-08-20T13:11:48;8.77;;;7.68;;
71513;SDS011;59335;46.652;21.272;2023-08-20T13:14:52;8.38;;;7.38;;
71513;SDS011;59335;46.652;21.272;2023-08-20T13:17:55;8.55;;;7.65;;
71513;SDS011;59335;46.652;21.272;2023-08-20T13:20:58;8.93;;;7.33;;
71513;SDS011;59335;46.652;21.272;2023-08-20T13:24:01;9.32;;;7.72;;
71513;SDS011;59335;46.652;21.272;2023-08-20T13:27:04;9.32;;;7.60;;
71513;SDS011;59335;46.652;21.272;2023-08-20T13:30:08;9.65;;;7.93;;
71513;SDS011;59335;46.652;21.272;2023-08-20T13:33:12;8.68;;;7.78;;
71513;SDS011;59335;46.652;21.272;2023-08-20T13:36:16;9.23;;;7.40;;
71513;SDS011;59335;46.652;21.272;2023-08-20T13:39:19;8.85;;;7.47;;
71513;SDS011;59335;46.652;21.272;2023-08-20T13:42:22;9.65;;;7.40;;
71513;SDS011;59335;46.652;21.272;2023-08-20T13:45:25;8.85;;;7.55;;
71513;SDS011;59335;46.652;21.272;2023-08-20T13:48:28;9.57;;;7.50;;
71513;SDS011;59335;46.652;21.272;2023-08-20T13:51:31;8.80;;;7.53;;
71513;SDS011;59335;46.652;21.272;2023-08-20T13:54:34;10.45;;;8.30;;
71513;SDS011;59335;46.652;21.272;2023-08-20T13:57:37;8.90;;;8.00;;
71513;SDS011;59335;46.652;21.272;2023-08-20T14:00:41;8.52;;;7.63;;
71513;SDS011;59335;46.652;21.272;2023-08-20T14:03:45;9.18;;;7.78;;
71513;SDS011;59335;46.652;21.272;2023-08-20T14:06:47;9.30;;;7.40;;
71513;SDS011;59335;46.652;21.272;2023-08-20T14:09:50;8.90;;;7.35;;
71513;SDS011;59335;46.652;21.272;2023-08-20T14:12:53;8.38;;;7.47;;
71513;SDS011;59335;46.652;21.272;2023-08-20T14:15:56;8.63;;;7.55;;
71513;SDS011;59335;46.652;21.272;2023-08-20T14:18:59;8.95;;;6.85;;
71513;SDS011;59335;46.652;21.272;2023-08-20T14:22:01;9.10;;;7.60;;
71513;SDS011;59335;46.652;21.272;2023-08-20T14:25:04;8.90;;;7.30;;
71513;SDS011;59335;46.652;21.272;2023-08-20T14:28:07;9.10;;;7.47;;
71513;SDS011;59335;46.652;21.272;2023-08-20T14:31:10;8.77;;;7.22;;
71513;SDS011;59335;46.652;21.272;2023-08-20T14:34:13;8.50;;;7.60;;
71513;SDS011;59335;46.652;21.272;2023-08-20T14:37:15;8.63;;;7.73;;
71513;SDS011;59335;46.652;21.272;2023-08-20T14:40:18;8.85;;;7.43;;
71513;SDS011;59335;46.652;21.272;2023-08-20T14:43:21;9.10;;;7.53;;
71513;SDS011;59335;46.652;21.272;2023-08-20T14:46:24;9.15;;;7.78;;
71513;SDS011;59335;46.652;21.272;2023-08-20T14:49:27;8.40;;;7.50;;
71513;SDS011;59335;46.652;21.272;2023-08-20T14:52:30;8.93;;;7.90;;
71513;SDS011;59335;46.652;21.272;2023-08-20T14:55:33;9.50;;;7.63;;
71513;SDS011;59335;46.652;21.272;2023-08-20T14:58:36;8.45;;;7.07;;
71513;SDS011;59335;46.652;21.272;2023-08-20T15:01:39;8.50;;;7.30;;
71513;SDS011;59335;46.652;21.272;2023-08-20T15:04:42;8.40;;;7.25;;
71513;SDS011;59335;46.652;21.272;2023-08-20T15:07:45;9.87;;;7.63;;
71513;SDS011;59335;46.652;21.272;2023-08-20T15:10:57;8.68;;;7.13;;
71513;SDS011;59335;46.652;21.272;2023-08-20T15:14:02;9.15;;;7.50;;
71513;SDS011;59335;46.652;21.272;2023-08-20T15:17:05;8.82;;;7.28;;
71513;SDS011;59335;46.652;21.272;2023-08-20T15:20:08;8.48;;;7.57;;
71513;SDS011;59335;46.652;21.272;2023-08-20T15:23:13;8.80;;;7.47;;
71513;SDS011;59335;46.652;21.272;2023-08-20T15:26:16;8.63;;;7.22;;
71513;SDS011;59335;46.652;21.272;2023-08-20T15:29:18;8.93;;;7.97;;
71513;SDS011;59335;46.652;21.272;2023-08-20T15:32:21;8.55;;;7.30;;
71513;SDS011;59335;46.652;21.272;2023-08-20T15:35:24;9.38;;;8.10;;
71513;SDS011;59335;46.652;21.272;2023-08-20T15:38:27;7.90;;;7.10;;
71513;SDS011;59335;46.652;21.272;2023-08-20T15:41:30;8.45;;;7.30;;
71513;SDS011;59335;46.652;21.272;2023-08-20T15:44:33;8.60;;;7.55;;
71513;SDS011;59335;46.652;21.272;2023-08-20T15:47:36;8.02;;;7.22;;
71513;SDS011;59335;46.652;21.272;2023-08-20T15:50:39;9.00;;;7.22;;
71513;SDS011;59335;46.652;21.272;2023-08-20T15:53:42;8.03;;;6.97;;
71513;SDS011;59335;46.652;21.272;2023-08-20T15:56:45;9.25;;;7.88;;
71513;SDS011;59335;46.652;21.272;2023-08-20T15:59:47;8.90;;;7.50;;
71513;SDS011;59335;46.652;21.272;2023-08-20T16:02:50;8.98;;;7.53;;
71513;SDS011;59335;46.652;21.272;2023-08-20T16:05:53;8.88;;;7.93;;
71513;SDS011;59335;46.652;21.272;2023-08-20T16:08:57;8.27;;;7.20;;
71513;SDS011;59335;46.652;21.272;2023-08-20T16:12:00;8.98;;;7.68;;
71513;SDS011;59335;46.652;21.272;2023-08-20T16:15:03;8.95;;;7.25;;
71513;SDS011;59335;46.652;21.272;2023-08-20T16:18:07;8.57;;;7.68;;
71513;SDS011;59335;46.652;21.272;2023-08-20T16:21:10;8.68;;;7.15;;
71513;SDS011;59335;46.652;21.272;2023-08-20T16:24:13;8.50;;;7.60;;
71513;SDS011;59335;46.652;21.272;2023-08-20T16:27:16;8.02;;;7.20;;
71513;SDS011;59335;46.652;21.272;2023-08-20T16:30:18;8.35;;;7.40;;
71513;SDS011;59335;46.652;21.272;2023-08-20T16:33:21;8.77;;;7.25;;
71513;SDS011;59335;46.652;21.272;2023-08-20T16:36:26;8.18;;;7.28;;
71513;SDS011;59335;46.652;21.272;2023-08-20T16:39:29;9.57;;;7.83;;
71513;SDS011;59335;46.652;21.272;2023-08-20T16:42:35;9.25;;;7.82;;
71513;SDS011;59335;46.652;21.272;2023-08-20T16:45:38;8.50;;;7.40;;
71513;SDS011;59335;46.652;21.272;2023-08-20T16:48:41;9.15;;;7.95;;
71513;SDS011;59335;46.652;21.272;2023-08-20T16:51:44;8.27;;;7.10;;
71513;SDS011;59335;46.652;21.272;2023-08-20T16:54:47;8.50;;;7.60;;
71513;SDS011;59335;46.652;21.272;2023-08-20T16:57:50;8.63;;;7.32;;
71513;SDS011;59335;46.652;21.272;2023-08-20T17:00:55;9.07;;;7.20;;
71513;SDS011;59335;46.652;21.272;2023-08-20T17:03:58;9.07;;;7.30;;
71513;SDS011;59335;46.652;21.272;2023-08-20T17:07:01;9.48;;;7.80;;
71513;SDS011;59335;46.652;21.272;2023-08-20T17:10:05;8.43;;;7.53;;
71513;SDS011;59335;46.652;21.272;2023-08-20T17:13:09;8.57;;;7.68;;
71513;SDS011;59335;46.652;21.272;2023-08-20T17:16:12;8.07;;;6.50;;
71513;SDS011;59335;46.652;21.272;2023-08-20T17:19:16;8.40;;;7.13;;
71513;SDS011;59335;46.652;21.272;2023-08-20T17:22:19;8.25;;;6.88;;
71513;SDS011;59335;46.652;21.272;2023-08-20T17:25:22;7.90;;;7.10;;
71513;SDS011;59335;46.652;21.272;2023-08-20T17:28:26;8.90;;;7.40;;
71513;SDS011;59335;46.652;21.272;2023-08-20T17:31:29;9.27;;;7.07;;
71513;SDS011;59335;46.652;21.272;2023-08-20T17:34:32;8.75;;;7.68;;
71513;SDS011;59335;46.652;21.272;2023-08-20T17:37:37;8.32;;;7.18;;
71513;SDS011;59335;46.652;21.272;2023-08-20T17:40:40;8.33;;;7.03;;
71513;SDS011;59335;46.652;21.272;2023-08-20T17:43:44;8.32;;;7.40;;
71513;SDS011;59335;46.652;21.272;2023-08-20T17:46:47;8.60;;;7.43;;
71513;SDS011;59335;46.652;21.272;2023-08-20T17:49:51;8.55;;;7.10;;
71513;SDS011;59335;46.652;21.272;2023-08-20T17:52:54;8.18;;;7.00;;
71513;SDS011;59335;46.652;21.272;2023-08-20T17:55:57;9.10;;;7.43;;
71513;SDS011;59335;46.652;21.272;2023-08-20T17:59:03;8.48;;;7.40;;
71513;SDS011;59335;46.652;21.272;2023-08-20T18:02:06;8.75;;;7.15;;
71513;SDS011;59335;46.652;21.272;2023-08-20T18:05:09;8.30;;;7.40;;
71513;SDS011;59335;46.652;21.272;2023-08-20T18:08:14;8.50;;;7.25;;
71513;SDS011;59335;46.652;21.272;2023-08-20T18:11:17;8.93;;;7.37;;
71513;SDS011;59335;46.652;21.272;2023-08-20T18:14:20;9.43;;;7.55;;
71513;SDS011;59335;46.652;21.272;2023-08-20T18:17:22;7.70;;;6.88;;
71513;SDS011;59335;46.652;21.272;2023-08-20T18:20:26;8.60;;;7.25;;